sensor_id;sensor_type;location;lat;lon;timestamp;P1;durP1;ratioP1;P2;durP2;ratioP2
75320;SDS011;63920;52.130;5.584;2022-11-20T00:00:48;33.20;;;19.25;;
75320;SDS011;63920;52.130;5.584;2022-11-20T00:03:14;34.78;;;18.55;;
75320;SDS011;63920;52.130;5.584;2022-11-20T00:05:40;41.97;;;19.98;;
75320;SDS011;63920;52.130;5.584;2022-11-20T00:08:05;45.13;;;23.38;;
75320;SDS011;63920;52.130;5.584;2022-11-20T00:10:31;43.47;;;24.13;;
75320;SDS011;63920;52.130;5.584;2022-11-20T00:13:00;43.55;;;23.38;;
75320;SDS011;63920;52.130;5.584;2022-11-20T00:15:25;36.63;;;20.75;;
75320;SDS011;63920;52.130;5.584;2022-11-20T00:17:51;36.22;;;20.13;;
75320;SDS011;63920;52.130;5.584;2022-11-20T00:20:16;34.40;;;19.80;;
75320;SDS011;63920;52.130;5.584;2022-11-20T00:22:42;38.05;;;20.73;;
75320;SDS011;63920;52.130;5.584;2022-11-20T00:25:07;38.50;;;21.40;;
75320;SDS011;63920;52.130;5.584;2022-11-20T00:27:33;38.20;;;20.67;;
75320;SDS011;63920;52.130;5.584;2022-11-20T00:29:59;30.67;;;19.80;;
75320;SDS011;63920;52.130;5.584;2022-11-20T00:32:24;35.35;;;20.92;;
75320;SDS011;63920;52.130;5.584;2022-11-20T00:34:50;34.80;;;20.73;;
75320;SDS011;63920;52.130;5.584;2022-11-20T00:37:15;37.35;;;20.13;;
75320;SDS011;63920;52.130;5.584;2022-11-20T00:39:41;32.90;;;19.38;;
75320;SDS011;63920;52.130;5.584;2022-11-20T00:42:06;29.55;;;17.52;;
75320;SDS011;63920;52.130;5.584;2022-11-20T00:44:32;27.60;;;17.85;;
75320;SDS011;63920;52.130;5.584;2022-11-20T00:46:57;31.83;;;18.38;;
75320;SDS011;63920;52.130;5.584;2022-11-20T00:49:23;31.77;;;18.33;;
75320;SDS011;63920;52.130;5.584;2022-11-20T00:51:48;31.02;;;17.67;;
75320;SDS011;63920;52.130;5.584;2022-11-20T00:54:14;30.65;;;18.08;;
75320;SDS011;63920;52.130;5.584;2022-11-20T00:56:40;29.42;;;18.20;;
75320;SDS011;63920;52.130;5.584;2022-11-20T00:59:05;35.67;;;18.92;;
75320;SDS011;63920;52.130;5.584;2022-11-20T01:01:31;34.20;;;19.85;;
75320;SDS011;63920;52.130;5.584;2022-11-20T01:03:57;35.97;;;18.75;;
75320;SDS011;63920;52.130;5.584;2022-11-20T01:06:25;33.92;;;18.80;;
75320;SDS011;63920;52.130;5.584;2022-11-20T01:08:54;39.42;;;19.83;;
75320;SDS011;63920;52.130;5.584;2022-11-20T01:11:23;39.78;;;21.70;;
75320;SDS011;63920;52.130;5.584;2022-11-20T01:13:50;37.22;;;19.40;;
75320;SDS011;63920;52.130;5.584;2022-11-20T01:16:18;35.97;;;19.25;;
75320;SDS011;63920;52.130;5.584;2022-11-20T01:18:59;33.95;;;18.75;;
75320;SDS011;63920;52.130;5.584;2022-11-20T01:21:30;27.73;;;16.38;;
75320;SDS011;63920;52.130;5.584;2022-11-20T01:23:58;25.55;;;15.65;;
75320;SDS011;63920;52.130;5.584;2022-11-20T01:26:25;26.08;;;13.80;;
75320;SDS011;63920;52.130;5.584;2022-11-20T01:28:52;21.23;;;14.13;;
75320;SDS011;63920;52.130;5.584;2022-11-20T01:31:21;20.50;;;13.65;;
75320;SDS011;63920;52.130;5.584;2022-11-20T01:33:58;21.23;;;12.65;;
75320;SDS011;63920;52.130;5.584;2022-11-20T01:36:26;18.63;;;12.32;;
75320;SDS011;63920;52.130;5.584;2022-11-20T01:38:57;18.80;;;12.35;;
75320;SDS011;63920;52.130;5.584;2022-11-20T01:41:25;20.58;;;12.43;;
75320;SDS011;63920;52.130;5.584;2022-11-20T01:44:11;19.63;;;11.95;;
75320;SDS011;63920;52.130;5.584;2022-11-20T01:46:40;25.25;;;12.48;;
75320;SDS011;63920;52.130;5.584;2022-11-20T01:49:18;17.88;;;11.60;;
75320;SDS011;63920;52.130;5.584;2022-11-20T01:51:54;17.60;;;12.07;;
75320;SDS011;63920;52.130;5.584;2022-11-20T01:54:25;18.50;;;12.30;;
75320;SDS011;63920;52.130;5.584;2022-11-20T01:56:57;19.75;;;13.23;;
75320;SDS011;63920;52.130;5.584;2022-11-20T01:59:25;16.25;;;11.55;;
75320;SDS011;63920;52.130;5.584;2022-11-20T02:01:52;21.27;;;12.75;;
75320;SDS011;63920;52.130;5.584;2022-11-20T02:04:18;17.98;;;11.98;;
75320;SDS011;63920;52.130;5.584;2022-11-20T02:07:00;19.00;;;12.30;;
75320;SDS011;63920;52.130;5.584;2022-11-20T02:09:27;18.77;;;11.85;;
75320;SDS011;63920;52.130;5.584;2022-11-20T02:11:53;20.63;;;12.73;;
75320;SDS011;63920;52.130;5.584;2022-11-20T02:14:20;23.70;;;12.52;;
75320;SDS011;63920;52.130;5.584;2022-11-20T02:16:47;19.15;;;12.35;;
75320;SDS011;63920;52.130;5.584;2022-11-20T02:19:27;22.10;;;13.25;;
75320;SDS011;63920;52.130;5.584;2022-11-20T02:24:39;25.80;;;13.68;;
75320;SDS011;63920;52.130;5.584;2022-11-20T02:27:07;16.75;;;11.60;;
75320;SDS011;63920;52.130;5.584;2022-11-20T02:29:43;21.52;;;13.05;;
75320;SDS011;63920;52.130;5.584;2022-11-20T02:32:30;22.50;;;13.35;;
75320;SDS011;63920;52.130;5.584;2022-11-20T02:34:57;25.08;;;13.32;;
75320;SDS011;63920;52.130;5.584;2022-11-20T02:37:32;23.58;;;13.15;;
75320;SDS011;63920;52.130;5.584;2022-11-20T02:40:01;25.70;;;13.25;;
75320;SDS011;63920;52.130;5.584;2022-11-20T02:42:27;23.73;;;13.60;;
75320;SDS011;63920;52.130;5.584;2022-11-20T02:44:52;22.20;;;13.60;;
75320;SDS011;63920;52.130;5.584;2022-11-20T02:47:18;26.83;;;14.77;;
75320;SDS011;63920;52.130;5.584;2022-11-20T02:49:43;20.95;;;13.38;;
75320;SDS011;63920;52.130;5.584;2022-11-20T02:52:09;22.70;;;12.98;;
75320;SDS011;63920;52.130;5.584;2022-11-20T02:54:34;21.05;;;12.65;;
75320;SDS011;63920;52.130;5.584;2022-11-20T02:57:00;23.05;;;14.00;;
75320;SDS011;63920;52.130;5.584;2022-11-20T02:59:25;24.70;;;14.63;;
75320;SDS011;63920;52.130;5.584;2022-11-20T03:01:51;18.90;;;12.20;;
75320;SDS011;63920;52.130;5.584;2022-11-20T03:04:16;21.23;;;13.68;;
75320;SDS011;63920;52.130;5.584;2022-11-20T03:06:42;21.58;;;13.07;;
75320;SDS011;63920;52.130;5.584;2022-11-20T03:09:07;25.30;;;14.88;;
75320;SDS011;63920;52.130;5.584;2022-11-20T03:11:33;25.83;;;13.75;;
75320;SDS011;63920;52.130;5.584;2022-11-20T03:14:01;20.02;;;13.35;;
75320;SDS011;63920;52.130;5.584;2022-11-20T03:16:28;21.05;;;13.30;;
75320;SDS011;63920;52.130;5.584;2022-11-20T03:18:53;22.73;;;13.27;;
75320;SDS011;63920;52.130;5.584;2022-11-20T03:21:19;20.70;;;13.35;;
75320;SDS011;63920;52.130;5.584;2022-11-20T03:23:45;21.42;;;12.70;;
75320;SDS011;63920;52.130;5.584;2022-11-20T03:26:11;24.17;;;13.57;;
75320;SDS011;63920;52.130;5.584;2022-11-20T03:28:38;25.50;;;13.23;;
75320;SDS011;63920;52.130;5.584;2022-11-20T03:31:11;22.75;;;12.98;;
75320;SDS011;63920;52.130;5.584;2022-11-20T03:33:38;26.73;;;14.38;;
75320;SDS011;63920;52.130;5.584;2022-11-20T03:36:06;21.70;;;13.02;;
75320;SDS011;63920;52.130;5.584;2022-11-20T03:38:36;17.88;;;12.10;;
75320;SDS011;63920;52.130;5.584;2022-11-20T03:41:03;18.30;;;12.75;;
75320;SDS011;63920;52.130;5.584;2022-11-20T03:43:30;20.52;;;13.35;;
75320;SDS011;63920;52.130;5.584;2022-11-20T03:45:56;19.58;;;12.55;;
75320;SDS011;63920;52.130;5.584;2022-11-20T03:48:22;19.85;;;12.18;;
75320;SDS011;63920;52.130;5.584;2022-11-20T03:50:48;19.35;;;11.80;;
75320;SDS011;63920;52.130;5.584;2022-11-20T03:53:14;21.00;;;12.88;;
75320;SDS011;63920;52.130;5.584;2022-11-20T03:55:40;22.08;;;13.18;;
75320;SDS011;63920;52.130;5.584;2022-11-20T03:58:06;19.45;;;12.60;;
75320;SDS011;63920;52.130;5.584;2022-11-20T04:00:31;24.05;;;12.68;;
75320;SDS011;63920;52.130;5.584;2022-11-20T04:02:57;21.65;;;13.35;;
75320;SDS011;63920;52.130;5.584;2022-11-20T04:05:24;20.80;;;13.43;;
75320;SDS011;63920;52.130;5.584;2022-11-20T04:07:49;23.38;;;12.82;;
75320;SDS011;63920;52.130;5.584;2022-11-20T04:10:15;23.65;;;13.80;;
75320;SDS011;63920;52.130;5.584;2022-11-20T04:12:40;22.58;;;13.30;;
75320;SDS011;63920;52.130;5.584;2022-11-20T04:15:06;21.48;;;13.48;;
75320;SDS011;63920;52.130;5.584;2022-11-20T04:17:32;26.65;;;14.88;;
75320;SDS011;63920;52.130;5.584;2022-11-20T04:19:57;22.73;;;13.90;;
75320;SDS011;63920;52.130;5.584;2022-11-20T04:22:23;21.70;;;14.07;;
75320;SDS011;63920;52.130;5.584;2022-11-20T04:24:48;20.95;;;13.63;;
75320;SDS011;63920;52.130;5.584;2022-11-20T04:27:14;22.77;;;13.63;;
75320;SDS011;63920;52.130;5.584;2022-11-20T04:29:40;25.38;;;14.85;;
75320;SDS011;63920;52.130;5.584;2022-11-20T04:32:05;22.48;;;13.90;;
75320;SDS011;63920;52.130;5.584;2022-11-20T04:34:31;26.73;;;14.88;;
75320;SDS011;63920;52.130;5.584;2022-11-20T04:36:56;26.02;;;14.40;;
75320;SDS011;63920;52.130;5.584;2022-11-20T04:39:22;24.83;;;14.32;;
75320;SDS011;63920;52.130;5.584;2022-11-20T04:41:47;23.00;;;13.63;;
75320;SDS011;63920;52.130;5.584;2022-11-20T04:44:13;21.27;;;13.98;;
75320;SDS011;63920;52.130;5.584;2022-11-20T04:46:42;23.13;;;13.55;;
75320;SDS011;63920;52.130;5.584;2022-11-20T04:49:08;24.98;;;13.65;;
75320;SDS011;63920;52.130;5.584;2022-11-20T04:51:33;24.70;;;14.13;;
75320;SDS011;63920;52.130;5.584;2022-11-20T04:53:59;26.38;;;14.18;;
75320;SDS011;63920;52.130;5.584;2022-11-20T04:56:25;31.35;;;13.93;;
75320;SDS011;63920;52.130;5.584;2022-11-20T04:58:51;25.73;;;14.50;;
75320;SDS011;63920;52.130;5.584;2022-11-20T05:01:20;27.17;;;14.50;;
75320;SDS011;63920;52.130;5.584;2022-11-20T05:03:48;30.27;;;15.85;;
75320;SDS011;63920;52.130;5.584;2022-11-20T05:06:17;28.92;;;14.25;;
75320;SDS011;63920;52.130;5.584;2022-11-20T05:08:43;21.75;;;13.30;;
75320;SDS011;63920;52.130;5.584;2022-11-20T05:11:10;23.00;;;14.32;;
75320;SDS011;63920;52.130;5.584;2022-11-20T05:13:37;22.73;;;14.07;;
75320;SDS011;63920;52.130;5.584;2022-11-20T05:16:08;22.30;;;13.10;;
75320;SDS011;63920;52.130;5.584;2022-11-20T05:18:35;25.85;;;14.25;;
75320;SDS011;63920;52.130;5.584;2022-11-20T05:21:01;30.02;;;14.18;;
75320;SDS011;63920;52.130;5.584;2022-11-20T05:23:28;29.02;;;13.63;;
75320;SDS011;63920;52.130;5.584;2022-11-20T05:25:55;25.70;;;16.05;;
75320;SDS011;63920;52.130;5.584;2022-11-20T05:28:22;26.70;;;14.85;;
75320;SDS011;63920;52.130;5.584;2022-11-20T05:30:48;26.80;;;13.65;;
75320;SDS011;63920;52.130;5.584;2022-11-20T05:33:14;22.70;;;13.73;;
75320;SDS011;63920;52.130;5.584;2022-11-20T05:35:40;24.15;;;13.73;;
75320;SDS011;63920;52.130;5.584;2022-11-20T05:38:06;23.95;;;14.05;;
75320;SDS011;63920;52.130;5.584;2022-11-20T05:40:32;24.95;;;14.65;;
75320;SDS011;63920;52.130;5.584;2022-11-20T05:42:57;24.30;;;14.63;;
75320;SDS011;63920;52.130;5.584;2022-11-20T05:45:24;24.30;;;15.18;;
75320;SDS011;63920;52.130;5.584;2022-11-20T05:47:49;26.23;;;14.85;;
75320;SDS011;63920;52.130;5.584;2022-11-20T05:50:15;22.67;;;14.02;;
75320;SDS011;63920;52.130;5.584;2022-11-20T05:52:40;28.63;;;14.80;;
75320;SDS011;63920;52.130;5.584;2022-11-20T05:55:07;25.35;;;13.90;;
75320;SDS011;63920;52.130;5.584;2022-11-20T05:57:33;24.40;;;13.98;;
75320;SDS011;63920;52.130;5.584;2022-11-20T05:59:58;22.10;;;14.35;;
75320;SDS011;63920;52.130;5.584;2022-11-20T06:02:24;22.00;;;13.68;;
75320;SDS011;63920;52.130;5.584;2022-11-20T06:04:49;25.48;;;13.48;;
75320;SDS011;63920;52.130;5.584;2022-11-20T06:07:15;24.70;;;14.13;;
75320;SDS011;63920;52.130;5.584;2022-11-20T06:09:40;22.98;;;13.75;;
75320;SDS011;63920;52.130;5.584;2022-11-20T06:12:06;29.33;;;13.80;;
75320;SDS011;63920;52.130;5.584;2022-11-20T06:14:35;23.17;;;13.23;;
75320;SDS011;63920;52.130;5.584;2022-11-20T06:17:01;19.88;;;12.80;;
75320;SDS011;63920;52.130;5.584;2022-11-20T06:19:27;22.50;;;13.10;;
75320;SDS011;63920;52.130;5.584;2022-11-20T06:21:52;22.75;;;13.32;;
75320;SDS011;63920;52.130;5.584;2022-11-20T06:24:18;23.45;;;13.52;;
75320;SDS011;63920;52.130;5.584;2022-11-20T06:26:43;21.00;;;13.38;;
75320;SDS011;63920;52.130;5.584;2022-11-20T06:29:09;25.77;;;15.20;;
75320;SDS011;63920;52.130;5.584;2022-11-20T06:31:35;21.65;;;13.07;;
75320;SDS011;63920;52.130;5.584;2022-11-20T06:34:03;22.00;;;14.55;;
75320;SDS011;63920;52.130;5.584;2022-11-20T06:36:29;20.05;;;12.25;;
75320;SDS011;63920;52.130;5.584;2022-11-20T06:38:55;19.63;;;12.63;;
75320;SDS011;63920;52.130;5.584;2022-11-20T06:41:21;21.92;;;13.07;;
75320;SDS011;63920;52.130;5.584;2022-11-20T06:43:47;25.58;;;14.40;;
75320;SDS011;63920;52.130;5.584;2022-11-20T06:46:14;23.05;;;13.40;;
75320;SDS011;63920;52.130;5.584;2022-11-20T06:48:42;21.67;;;12.90;;
75320;SDS011;63920;52.130;5.584;2022-11-20T06:51:08;20.00;;;12.60;;
75320;SDS011;63920;52.130;5.584;2022-11-20T06:53:34;19.15;;;12.13;;
75320;SDS011;63920;52.130;5.584;2022-11-20T06:56:00;25.02;;;13.27;;
75320;SDS011;63920;52.130;5.584;2022-11-20T06:58:27;23.13;;;13.52;;
75320;SDS011;63920;52.130;5.584;2022-11-20T07:00:57;22.00;;;14.15;;
75320;SDS011;63920;52.130;5.584;2022-11-20T07:03:28;21.98;;;13.45;;
75320;SDS011;63920;52.130;5.584;2022-11-20T07:05:56;20.60;;;12.90;;
75320;SDS011;63920;52.130;5.584;2022-11-20T07:08:23;19.15;;;11.85;;
75320;SDS011;63920;52.130;5.584;2022-11-20T07:10:49;20.52;;;12.73;;
75320;SDS011;63920;52.130;5.584;2022-11-20T07:13:15;16.98;;;11.73;;
75320;SDS011;63920;52.130;5.584;2022-11-20T07:15:40;23.52;;;12.70;;
75320;SDS011;63920;52.130;5.584;2022-11-20T07:18:06;19.65;;;13.00;;
75320;SDS011;63920;52.130;5.584;2022-11-20T07:20:31;22.75;;;12.20;;
75320;SDS011;63920;52.130;5.584;2022-11-20T07:22:57;18.98;;;12.45;;
75320;SDS011;63920;52.130;5.584;2022-11-20T07:25:24;18.40;;;11.73;;
75320;SDS011;63920;52.130;5.584;2022-11-20T07:27:50;23.42;;;13.35;;
75320;SDS011;63920;52.130;5.584;2022-11-20T07:30:16;22.05;;;14.13;;
75320;SDS011;63920;52.130;5.584;2022-11-20T07:32:42;25.67;;;15.23;;
75320;SDS011;63920;52.130;5.584;2022-11-20T07:35:10;23.17;;;14.57;;
75320;SDS011;63920;52.130;5.584;2022-11-20T07:37:36;25.10;;;14.27;;
75320;SDS011;63920;52.130;5.584;2022-11-20T07:40:02;21.13;;;13.82;;
75320;SDS011;63920;52.130;5.584;2022-11-20T07:42:28;25.58;;;14.25;;
75320;SDS011;63920;52.130;5.584;2022-11-20T07:44:54;22.02;;;12.75;;
75320;SDS011;63920;52.130;5.584;2022-11-20T07:47:19;23.40;;;14.20;;
75320;SDS011;63920;52.130;5.584;2022-11-20T07:49:45;24.25;;;13.73;;
75320;SDS011;63920;52.130;5.584;2022-11-20T07:52:11;19.80;;;13.70;;
75320;SDS011;63920;52.130;5.584;2022-11-20T07:54:36;19.85;;;12.73;;
75320;SDS011;63920;52.130;5.584;2022-11-20T07:57:02;26.35;;;14.43;;
75320;SDS011;63920;52.130;5.584;2022-11-20T07:59:28;26.27;;;15.50;;
75320;SDS011;63920;52.130;5.584;2022-11-20T08:01:54;25.70;;;15.13;;
75320;SDS011;63920;52.130;5.584;2022-11-20T08:04:20;22.13;;;14.73;;
75320;SDS011;63920;52.130;5.584;2022-11-20T08:06:45;27.83;;;14.32;;
75320;SDS011;63920;52.130;5.584;2022-11-20T08:09:11;20.60;;;13.57;;
75320;SDS011;63920;52.130;5.584;2022-11-20T08:11:36;26.45;;;13.88;;
75320;SDS011;63920;52.130;5.584;2022-11-20T08:14:21;22.83;;;14.25;;
75320;SDS011;63920;52.130;5.584;2022-11-20T08:16:47;20.92;;;14.07;;
75320;SDS011;63920;52.130;5.584;2022-11-20T08:19:14;24.70;;;16.58;;
75320;SDS011;63920;52.130;5.584;2022-11-20T08:21:41;28.25;;;18.38;;
75320;SDS011;63920;52.130;5.584;2022-11-20T08:24:07;26.52;;;16.63;;
75320;SDS011;63920;52.130;5.584;2022-11-20T08:26:34;29.15;;;15.95;;
75320;SDS011;63920;52.130;5.584;2022-11-20T08:29:00;27.33;;;17.38;;
75320;SDS011;63920;52.130;5.584;2022-11-20T08:31:26;28.48;;;17.25;;
75320;SDS011;63920;52.130;5.584;2022-11-20T08:33:53;29.92;;;16.25;;
75320;SDS011;63920;52.130;5.584;2022-11-20T08:36:19;35.25;;;19.02;;
75320;SDS011;63920;52.130;5.584;2022-11-20T08:38:49;27.80;;;17.83;;
75320;SDS011;63920;52.130;5.584;2022-11-20T08:41:16;27.40;;;17.80;;
75320;SDS011;63920;52.130;5.584;2022-11-20T08:43:48;26.83;;;16.80;;
75320;SDS011;63920;52.130;5.584;2022-11-20T08:46:25;29.08;;;16.77;;
75320;SDS011;63920;52.130;5.584;2022-11-20T08:48:52;28.02;;;17.08;;
75320;SDS011;63920;52.130;5.584;2022-11-20T08:51:18;28.50;;;17.98;;
75320;SDS011;63920;52.130;5.584;2022-11-20T08:53:44;30.55;;;18.55;;
75320;SDS011;63920;52.130;5.584;2022-11-20T08:56:10;28.55;;;18.60;;
75320;SDS011;63920;52.130;5.584;2022-11-20T08:58:37;32.67;;;18.35;;
75320;SDS011;63920;52.130;5.584;2022-11-20T09:01:03;33.92;;;18.95;;
75320;SDS011;63920;52.130;5.584;2022-11-20T09:03:29;29.48;;;17.35;;
75320;SDS011;63920;52.130;5.584;2022-11-20T09:05:58;28.95;;;17.65;;
75320;SDS011;63920;52.130;5.584;2022-11-20T09:08:25;29.85;;;18.05;;
75320;SDS011;63920;52.130;5.584;2022-11-20T09:10:51;29.95;;;18.25;;
75320;SDS011;63920;52.130;5.584;2022-11-20T09:13:18;29.40;;;17.70;;
75320;SDS011;63920;52.130;5.584;2022-11-20T09:15:44;29.92;;;18.73;;
75320;SDS011;63920;52.130;5.584;2022-11-20T09:18:09;31.23;;;19.05;;
75320;SDS011;63920;52.130;5.584;2022-11-20T09:20:35;34.83;;;18.65;;
75320;SDS011;63920;52.130;5.584;2022-11-20T09:23:00;29.13;;;18.05;;
75320;SDS011;63920;52.130;5.584;2022-11-20T09:25:26;32.65;;;19.48;;
75320;SDS011;63920;52.130;5.584;2022-11-20T09:27:55;30.00;;;17.98;;
75320;SDS011;63920;52.130;5.584;2022-11-20T09:30:24;30.60;;;18.63;;
75320;SDS011;63920;52.130;5.584;2022-11-20T09:32:51;34.42;;;17.63;;
75320;SDS011;63920;52.130;5.584;2022-11-20T09:35:16;30.67;;;18.45;;
75320;SDS011;63920;52.130;5.584;2022-11-20T09:37:43;28.10;;;17.92;;
75320;SDS011;63920;52.130;5.584;2022-11-20T09:40:17;25.90;;;16.65;;
75320;SDS011;63920;52.130;5.584;2022-11-20T09:43:12;30.08;;;18.75;;
75320;SDS011;63920;52.130;5.584;2022-11-20T09:51:42;28.48;;;16.95;;
75320;SDS011;63920;52.130;5.584;2022-11-20T09:56:47;32.00;;;18.58;;
75320;SDS011;63920;52.130;5.584;2022-11-20T10:01:56;32.80;;;19.42;;
75320;SDS011;63920;52.130;5.584;2022-11-20T10:04:23;30.65;;;18.83;;
75320;SDS011;63920;52.130;5.584;2022-11-20T10:09:35;29.63;;;17.80;;
75320;SDS011;63920;52.130;5.584;2022-11-20T10:12:09;28.73;;;17.67;;
75320;SDS011;63920;52.130;5.584;2022-11-20T10:23:38;26.02;;;17.60;;
75320;SDS011;63920;52.130;5.584;2022-11-20T10:26:17;29.73;;;19.40;;
75320;SDS011;63920;52.130;5.584;2022-11-20T10:29:10;33.28;;;19.42;;
75320;SDS011;63920;52.130;5.584;2022-11-20T10:31:37;33.30;;;20.20;;
75320;SDS011;63920;52.130;5.584;2022-11-20T10:34:21;33.67;;;20.13;;
75320;SDS011;63920;52.130;5.584;2022-11-20T10:37:12;28.00;;;19.15;;
75320;SDS011;63920;52.130;5.584;2022-11-20T10:39:53;33.00;;;20.65;;
75320;SDS011;63920;52.130;5.584;2022-11-20T10:42:34;33.85;;;20.38;;
75320;SDS011;63920;52.130;5.584;2022-11-20T10:45:16;31.95;;;19.85;;
75320;SDS011;63920;52.130;5.584;2022-11-20T10:47:56;35.20;;;20.15;;
75320;SDS011;63920;52.130;5.584;2022-11-20T10:50:32;36.00;;;21.27;;
75320;SDS011;63920;52.130;5.584;2022-11-20T11:00:44;32.38;;;21.23;;
75320;SDS011;63920;52.130;5.584;2022-11-20T11:03:19;36.78;;;21.52;;
75320;SDS011;63920;52.130;5.584;2022-11-20T11:05:50;35.83;;;21.70;;
75320;SDS011;63920;52.130;5.584;2022-11-20T11:08:24;35.33;;;22.20;;
75320;SDS011;63920;52.130;5.584;2022-11-20T11:10:54;40.45;;;23.02;;
75320;SDS011;63920;52.130;5.584;2022-11-20T11:13:29;39.67;;;23.90;;
75320;SDS011;63920;52.130;5.584;2022-11-20T11:15:56;36.55;;;21.80;;
75320;SDS011;63920;52.130;5.584;2022-11-20T11:18:26;37.85;;;22.13;;
75320;SDS011;63920;52.130;5.584;2022-11-20T11:20:57;40.60;;;23.95;;
75320;SDS011;63920;52.130;5.584;2022-11-20T11:23:28;38.75;;;23.80;;
75320;SDS011;63920;52.130;5.584;2022-11-20T11:26:05;38.33;;;23.05;;
75320;SDS011;63920;52.130;5.584;2022-11-20T11:28:52;44.67;;;25.75;;
75320;SDS011;63920;52.130;5.584;2022-11-20T11:31:22;42.45;;;25.33;;
75320;SDS011;63920;52.130;5.584;2022-11-20T11:33:52;42.67;;;24.52;;
75320;SDS011;63920;52.130;5.584;2022-11-20T11:36:28;49.45;;;27.20;;
75320;SDS011;63920;52.130;5.584;2022-11-20T11:38:54;39.85;;;24.50;;
75320;SDS011;63920;52.130;5.584;2022-11-20T11:41:23;45.70;;;26.50;;
75320;SDS011;63920;52.130;5.584;2022-11-20T11:43:55;41.45;;;25.98;;
75320;SDS011;63920;52.130;5.584;2022-11-20T11:46:44;44.00;;;25.77;;
75320;SDS011;63920;52.130;5.584;2022-11-20T11:49:17;41.95;;;25.25;;
75320;SDS011;63920;52.130;5.584;2022-11-20T11:54:38;41.90;;;24.38;;
75320;SDS011;63920;52.130;5.584;2022-11-20T11:59:58;39.40;;;24.60;;
75320;SDS011;63920;52.130;5.584;2022-11-20T12:10:38;38.08;;;23.20;;
75320;SDS011;63920;52.130;5.584;2022-11-20T12:15:43;39.63;;;23.88;;
75320;SDS011;63920;52.130;5.584;2022-11-20T12:18:14;42.88;;;24.92;;
75320;SDS011;63920;52.130;5.584;2022-11-20T12:20:44;37.80;;;23.35;;
75320;SDS011;63920;52.130;5.584;2022-11-20T12:23:22;40.10;;;24.35;;
75320;SDS011;63920;52.130;5.584;2022-11-20T12:25:58;38.10;;;23.73;;
75320;SDS011;63920;52.130;5.584;2022-11-20T12:28:34;42.72;;;25.60;;
75320;SDS011;63920;52.130;5.584;2022-11-20T12:33:57;42.72;;;25.25;;
75320;SDS011;63920;52.130;5.584;2022-11-20T12:45:00;43.33;;;24.95;;
75320;SDS011;63920;52.130;5.584;2022-11-20T12:50:32;43.08;;;25.25;;
75320;SDS011;63920;52.130;5.584;2022-11-20T12:53:22;39.65;;;24.10;;
75320;SDS011;63920;52.130;5.584;2022-11-20T13:04:18;37.83;;;22.92;;
75320;SDS011;63920;52.130;5.584;2022-11-20T13:07:05;39.75;;;25.88;;
75320;SDS011;63920;52.130;5.584;2022-11-20T13:09:37;43.92;;;27.58;;
75320;SDS011;63920;52.130;5.584;2022-11-20T13:12:14;43.70;;;25.70;;
75320;SDS011;63920;52.130;5.584;2022-11-20T13:17:54;38.75;;;23.80;;
75320;SDS011;63920;52.130;5.584;2022-11-20T13:20:23;43.10;;;24.80;;
75320;SDS011;63920;52.130;5.584;2022-11-20T13:22:50;37.50;;;24.13;;
75320;SDS011;63920;52.130;5.584;2022-11-20T13:27:53;44.15;;;28.38;;
75320;SDS011;63920;52.130;5.584;2022-11-20T13:30:21;48.67;;;31.15;;
75320;SDS011;63920;52.130;5.584;2022-11-20T13:32:49;43.65;;;27.83;;
75320;SDS011;63920;52.130;5.584;2022-11-20T13:35:26;41.15;;;25.42;;
75320;SDS011;63920;52.130;5.584;2022-11-20T13:38:00;38.42;;;24.52;;
75320;SDS011;63920;52.130;5.584;2022-11-20T13:40:31;42.53;;;25.98;;
75320;SDS011;63920;52.130;5.584;2022-11-20T13:43:04;40.42;;;25.92;;
75320;SDS011;63920;52.130;5.584;2022-11-20T13:45:36;42.92;;;26.25;;
75320;SDS011;63920;52.130;5.584;2022-11-20T13:48:02;41.38;;;25.58;;
75320;SDS011;63920;52.130;5.584;2022-11-20T13:56:00;44.25;;;26.70;;
75320;SDS011;63920;52.130;5.584;2022-11-20T13:58:48;43.42;;;26.25;;
75320;SDS011;63920;52.130;5.584;2022-11-20T14:01:35;45.05;;;26.80;;
75320;SDS011;63920;52.130;5.584;2022-11-20T14:04:08;44.28;;;25.63;;
75320;SDS011;63920;52.130;5.584;2022-11-20T14:06:41;48.28;;;28.88;;
75320;SDS011;63920;52.130;5.584;2022-11-20T14:09:12;49.95;;;27.73;;
75320;SDS011;63920;52.130;5.584;2022-11-20T14:11:50;42.65;;;27.17;;
75320;SDS011;63920;52.130;5.584;2022-11-20T14:14:17;46.55;;;26.27;;
75320;SDS011;63920;52.130;5.584;2022-11-20T14:16:48;45.45;;;27.50;;
75320;SDS011;63920;52.130;5.584;2022-11-20T14:19:25;46.25;;;27.48;;
75320;SDS011;63920;52.130;5.584;2022-11-20T14:22:16;47.10;;;28.13;;
75320;SDS011;63920;52.130;5.584;2022-11-20T14:24:46;49.35;;;29.45;;
75320;SDS011;63920;52.130;5.584;2022-11-20T14:27:43;43.33;;;25.85;;
75320;SDS011;63920;52.130;5.584;2022-11-20T14:30:14;42.75;;;26.75;;
75320;SDS011;63920;52.130;5.584;2022-11-20T14:32:45;46.13;;;27.00;;
75320;SDS011;63920;52.130;5.584;2022-11-20T14:35:17;47.22;;;30.00;;
75320;SDS011;63920;52.130;5.584;2022-11-20T14:37:50;46.55;;;27.83;;
75320;SDS011;63920;52.130;5.584;2022-11-20T14:43:02;42.20;;;26.73;;
75320;SDS011;63920;52.130;5.584;2022-11-20T14:45:52;47.13;;;28.30;;
75320;SDS011;63920;52.130;5.584;2022-11-20T14:48:31;44.88;;;27.17;;
75320;SDS011;63920;52.130;5.584;2022-11-20T14:51:01;46.00;;;28.38;;
75320;SDS011;63920;52.130;5.584;2022-11-20T14:53:27;43.83;;;26.60;;
75320;SDS011;63920;52.130;5.584;2022-11-20T14:56:00;48.88;;;29.27;;
75320;SDS011;63920;52.130;5.584;2022-11-20T14:58:27;58.47;;;31.33;;
75320;SDS011;63920;52.130;5.584;2022-11-20T15:01:05;53.90;;;31.42;;
75320;SDS011;63920;52.130;5.584;2022-11-20T15:03:33;51.45;;;30.65;;
75320;SDS011;63920;52.130;5.584;2022-11-20T15:06:00;46.17;;;28.58;;
75320;SDS011;63920;52.130;5.584;2022-11-20T15:08:26;47.67;;;30.75;;
75320;SDS011;63920;52.130;5.584;2022-11-20T15:10:52;55.83;;;32.70;;
75320;SDS011;63920;52.130;5.584;2022-11-20T15:13:31;50.38;;;32.85;;
75320;SDS011;63920;52.130;5.584;2022-11-20T15:16:00;67.47;;;41.28;;
75320;SDS011;63920;52.130;5.584;2022-11-20T15:18:37;58.85;;;33.17;;
75320;SDS011;63920;52.130;5.584;2022-11-20T15:21:09;56.40;;;33.55;;
75320;SDS011;63920;52.130;5.584;2022-11-20T15:23:37;50.03;;;28.80;;
75320;SDS011;63920;52.130;5.584;2022-11-20T15:26:06;49.42;;;28.60;;
75320;SDS011;63920;52.130;5.584;2022-11-20T15:28:36;47.88;;;29.90;;
75320;SDS011;63920;52.130;5.584;2022-11-20T15:31:09;50.33;;;29.25;;
75320;SDS011;63920;52.130;5.584;2022-11-20T15:33:38;48.05;;;29.25;;
75320;SDS011;63920;52.130;5.584;2022-11-20T15:36:04;56.28;;;31.95;;
75320;SDS011;63920;52.130;5.584;2022-11-20T15:38:30;57.50;;;33.85;;
75320;SDS011;63920;52.130;5.584;2022-11-20T15:40:55;52.38;;;30.27;;
75320;SDS011;63920;52.130;5.584;2022-11-20T15:43:21;49.50;;;27.70;;
75320;SDS011;63920;52.130;5.584;2022-11-20T15:48:27;45.60;;;28.17;;
75320;SDS011;63920;52.130;5.584;2022-11-20T15:50:56;50.97;;;29.13;;
75320;SDS011;63920;52.130;5.584;2022-11-20T15:53:26;46.63;;;29.40;;
75320;SDS011;63920;52.130;5.584;2022-11-20T15:55:52;51.30;;;31.40;;
75320;SDS011;63920;52.130;5.584;2022-11-20T15:58:17;56.50;;;33.20;;
75320;SDS011;63920;52.130;5.584;2022-11-20T16:00:43;52.75;;;33.25;;